Time;durP1;ratioP1;P1;durP2;ratioP2;P2;SDS_P1;SDS_P2;PMS_P1;PMS_P2;Temp;Humidity;BMP_temperature;BMP_pressure;BME280_temperature;BME280_humidity;BME280_pressure;Samples;Min_cycle;Max_cycle;Signal;HPM_P1;HPM_P2
2023/03/30 00:00:52;;;;;;;;;0.67;0.33;;;;;17.93;44.98;100473.44;5044818;28;45536;-69
2023/03/30 00:03:18;;;;;;;;;5.67;2.33;;;;;17.96;45.28;100478.81;5048410;28;45510;-71
2023/03/30 00:05:45;;;;;;;;;4.00;3.00;;;;;17.93;45.52;100468.03;5054235;28;45476;-69
2023/03/30 00:08:13;;;;;;;;;3.00;3.00;;;;;17.89;45.86;100441.06;5058426;28;46008;-71
2023/03/30 00:10:43;;;;;;;;;3.00;2.00;;;;;17.92;45.74;100444.63;5046457;28;45530;-72
2023/03/30 00:13:10;;;;;;;;;3.00;3.00;;;;;17.96;46.54;100429.28;5042561;28;45561;-71
2023/03/30 00:15:36;;;;;;;;;2.00;2.00;;;;;17.96;47.23;100424.75;5048008;28;45523;-70
2023/03/30 00:18:02;;;;;;;;;5.00;3.00;;;;;17.93;47.92;100400.47;5044298;28;46125;-72
2023/03/30 00:20:31;;;;;;;;;3.00;3.00;;;;;17.93;48.64;100403.16;5050276;28;45490;-73
2023/03/30 00:22:57;;;;;;;;;3.00;3.00;;;;;17.83;48.66;100391.50;5054050;28;45521;-69
2023/03/30 00:25:23;;;;;;;;;6.67;3.00;;;;;17.90;48.89;100405.00;5044741;28;45425;-73
2023/03/30 00:27:48;;;;;;;;;3.00;3.00;;;;;17.82;49.21;100415.88;5055545;28;45384;-70
2023/03/30 00:30:16;;;;;;;;;6.67;4.00;;;;;17.84;49.50;100411.34;5063670;28;45339;-67
2023/03/30 00:32:43;;;;;;;;;3.33;3.00;;;;;17.79;49.73;100389.75;5053525;28;45506;-73
2023/03/30 00:35:09;;;;;;;;;3.00;3.00;;;;;17.79;49.67;100381.66;5053907;28;45342;-69
2023/03/30 00:37:36;;;;;;;;;4.33;4.00;;;;;17.75;49.54;100385.31;5052654;28;45694;-72
2023/03/30 00:40:06;;;;;;;;;5.33;4.00;;;;;17.72;49.50;100381.72;5054745;28;45519;-73
2023/03/30 00:42:31;;;;;;;;;3.67;3.00;;;;;17.65;49.31;100364.66;5053043;28;45535;-71
2023/03/30 00:44:57;;;;;;;;;3.33;2.33;;;;;17.73;49.40;100397.91;5052559;28;45470;-72
2023/03/30 00:47:24;;;;;;;;;3.00;3.00;;;;;17.61;49.29;100388.09;5052464;28;45349;-70
2023/03/30 00:49:49;;;;;;;;;3.67;3.67;;;;;17.69;49.43;100394.34;5048937;28;45685;-74
2023/03/30 00:52:18;;;;;;;;;4.00;2.67;;;;;17.67;49.61;100390.78;5042858;28;45400;-70
2023/03/30 00:54:46;;;;;;;;;4.00;3.00;;;;;17.65;49.79;100399.78;5059406;28;45341;-72
2023/03/30 00:57:12;;;;;;;;;1.00;1.00;;;;;17.57;49.79;100398.94;5053378;28;45539;-71
2023/03/30 00:59:39;;;;;;;;;4.33;3.00;;;;;17.61;49.28;100414.25;5063200;28;45262;-69
2023/03/30 01:02:04;;;;;;;;;9.67;4.33;;;;;17.61;49.83;100407.03;5049678;28;45689;-68
2023/03/30 01:04:32;;;;;;;;;5.00;3.00;;;;;17.53;49.44;100392.69;5050361;28;45395;-72
2023/03/30 01:06:58;;;;;;;;;4.00;4.00;;;;;17.54;50.04;100382.75;5051551;28;45563;-72
2023/03/30 01:09:24;;;;;;;;;3.00;2.33;;;;;17.46;50.06;100369.34;5050321;28;45790;-68
2023/03/30 01:11:50;;;;;;;;;3.67;3.67;;;;;17.50;50.22;100396.31;5048424;28;45411;-73
2023/03/30 01:14:16;;;;;;;;;3.67;3.67;;;;;17.49;50.21;100390.94;5046790;28;45313;-75
2023/03/30 01:16:48;;;;;;;;;3.33;3.00;;;;;17.48;50.02;100384.59;5044726;28;45538;-70
2023/03/30 01:19:50;;;;;;;;;3.33;3.33;;;;;17.44;50.11;100404.47;5048209;28;45496;-68
2023/03/30 01:22:49;;;;;;;;;2.00;2.00;;;;;17.39;50.48;100410.78;5042698;28;45597;-69
2023/03/30 01:25:29;;;;;;;;;4.00;2.00;;;;;17.37;50.65;100388.31;5041759;28;45710;-71
2023/03/30 01:28:33;;;;;;;;;2.00;2.00;;;;;17.34;50.89;100407.22;5048521;28;46967;-71
2023/03/30 01:31:27;;;;;;;;;2.33;2.00;;;;;17.30;50.77;100398.25;5044620;28;45306;-70
2023/03/30 01:34:30;;;;;;;;;2.33;2.00;;;;;17.26;51.04;100405.47;5038611;28;45556;-72
2023/03/30 01:37:14;;;;;;;;;3.00;2.00;;;;;17.25;51.14;100397.38;5043366;28;45511;-74
2023/03/30 01:39:48;;;;;;;;;3.00;3.00;;;;;17.22;51.57;100406.38;5042560;28;46150;-72
2023/03/30 01:42:26;;;;;;;;;2.00;2.00;;;;;17.18;51.52;100426.22;5038323;28;45686;-68
2023/03/30 01:44:59;;;;;;;;;2.00;2.00;;;;;17.14;51.84;100432.53;5044993;28;45461;-71
2023/03/30 01:47:38;;;;;;;;;2.67;2.00;;;;;17.09;51.50;100427.19;5049608;28;45600;-70
2023/03/30 01:50:16;;;;;;;;;2.00;1.00;;;;;17.07;52.24;100420.00;5044425;28;45657;-71
2023/03/30 01:52:52;;;;;;;;;2.00;2.00;;;;;16.94;51.94;100401.19;5047421;28;45616;-70
2023/03/30 01:55:40;;;;;;;;;1.00;1.00;;;;;17.01;52.44;100414.63;5049923;28;45569;-71
2023/03/30 01:58:15;;;;;;;;;4.00;1.00;;;;;16.99;52.86;100411.94;5043412;28;45661;-67
2023/03/30 02:00:46;;;;;;;;;4.00;3.67;;;;;16.90;52.48;100412.00;5043505;28;47951;-72
2023/03/30 02:03:32;;;;;;;;;2.00;2.00;;;;;16.95;52.38;100407.47;5048971;28;45517;-69
2023/03/30 02:06:09;;;;;;;;;5.00;3.00;;;;;16.89;51.91;100402.09;5044958;28;45553;-69
2023/03/30 02:08:37;;;;;;;;;4.67;1.67;;;;;16.89;52.21;100375.09;5037769;28;45966;-72
2023/03/30 02:11:02;;;;;;;;;1.00;1.00;;;;;16.73;52.10;100352.69;5051033;28;47689;-71
2023/03/30 02:13:30;;;;;;;;;2.00;2.00;;;;;16.46;51.91;100334.84;5054182;28;45452;-69
2023/03/30 02:16:01;;;;;;;;;2.33;2.33;;;;;16.77;52.15;100414.69;5054208;28;45386;-70
2023/03/30 02:18:27;;;;;;;;;1.67;1.67;;;;;16.80;51.77;100418.31;5049770;28;45501;-69
2023/03/30 02:20:55;;;;;;;;;3.00;1.67;;;;;16.76;51.91;100430.88;5051835;28;45528;-70
2023/03/30 02:23:24;;;;;;;;;1.33;1.33;;;;;16.80;52.05;100437.19;5052210;28;45452;-70
2023/03/30 02:25:50;;;;;;;;;1.33;1.33;;;;;16.76;51.93;100445.31;5051254;28;45394;-70
2023/03/30 02:28:15;;;;;;;;;2.67;0.67;;;;;16.77;52.22;100446.19;5054098;28;45437;-68
2023/03/30 02:30:44;;;;;;;;;2.00;1.67;;;;;16.75;52.15;100430.00;5047222;28;46208;-68
2023/03/30 02:33:23;;;;;;;;;1.67;1.67;;;;;16.63;51.66;100403.09;5046760;28;45564;-68
2023/03/30 02:36:36;;;;;;;;;0.00;0.00;;;;;16.70;52.11;100430.94;5045106;28;45933;-70
2023/03/30 02:39:26;;;;;;;;;2.00;2.00;;;;;16.60;52.30;100430.06;5048155;28;45604;-70
2023/03/30 02:42:00;;;;;;;;;0.33;0.33;;;;;16.59;52.46;100444.44;5050021;28;46560;-69
2023/03/30 02:45:07;;;;;;;;;1.00;1.00;;;;;16.55;52.54;100437.28;5043865;28;45560;-70
2023/03/30 02:47:45;;;;;;;;;4.00;1.00;;;;;16.52;52.08;100469.66;5053383;28;45513;-69
2023/03/30 02:50:26;;;;;;;;;1.33;1.33;;;;;16.51;52.67;100484.91;5054229;28;45949;-70
2023/03/30 02:53:00;;;;;;;;;0.67;0.67;;;;;16.45;52.71;100475.94;5049500;28;46535;-70
2023/03/30 02:55:35;;;;;;;;;2.33;1.33;;;;;16.40;52.72;100476.88;5054901;28;45644;-70
2023/03/30 02:58:24;;;;;;;;;8.67;2.33;;;;;16.40;52.48;100468.78;5049608;28;45606;-71
2023/03/30 03:00:56;;;;;;;;;0.67;0.67;;;;;16.31;52.59;100458.00;5044033;28;45645;-70
2023/03/30 03:03:30;;;;;;;;;0.33;0.33;;;;;16.31;53.17;100471.47;5049485;28;46139;-70
2023/03/30 03:05:56;;;;;;;;;0.67;0.67;;;;;16.31;53.29;100484.94;5043697;28;45579;-70
2023/03/30 03:08:24;;;;;;;;;0.67;0.67;;;;;16.27;53.08;100482.25;5053153;28;45587;-69
2023/03/30 03:10:50;;;;;;;;;3.00;1.00;;;;;16.21;52.85;100459.81;5053103;28;45506;-72
2023/03/30 03:13:17;;;;;;;;;3.00;1.33;;;;;16.29;53.53;100462.50;5050204;28;46355;-71
2023/03/30 03:15:44;;;;;;;;;1.67;1.67;;;;;16.29;53.55;100459.81;5050840;28;45465;-70
2023/03/30 03:18:11;;;;;;;;;1.67;1.00;;;;;16.26;53.44;100478.69;5047931;28;45504;-71
2023/03/30 03:20:37;;;;;;;;;0.67;0.67;;;;;16.21;53.61;100465.19;5053673;28;45471;-69
2023/03/30 03:23:02;;;;;;;;;4.33;1.67;;;;;16.01;53.61;100429.31;5049801;28;46797;-71
2023/03/30 03:25:28;;;;;;;;;2.67;1.00;;;;;16.15;53.83;100457.16;5045502;28;45327;-69
2023/03/30 03:27:53;;;;;;;;;2.00;1.67;;;;;16.17;54.26;100466.13;5051957;28;45387;-68
2023/03/30 03:30:18;;;;;;;;;1.67;1.67;;;;;16.11;54.72;100449.94;5054574;28;45452;-71
2023/03/30 03:32:44;;;;;;;;;2.67;1.00;;;;;16.10;54.24;100461.66;5054903;28;46399;-71
2023/03/30 03:35:09;;;;;;;;;1.00;1.00;;;;;16.11;54.20;100484.97;5058275;28;45339;-72
2023/03/30 03:37:35;;;;;;;;;5.00;2.00;;;;;16.06;54.94;100483.19;5049907;28;45323;-71
2023/03/30 03:40:00;;;;;;;;;0.33;0.33;;;;;16.06;54.64;100477.81;5051540;28;45425;-72
2023/03/30 03:42:25;;;;;;;;;1.33;1.33;;;;;16.03;54.93;100470.59;5052061;28;45381;-69
2023/03/30 03:44:51;;;;;;;;;2.67;1.67;;;;;16.01;55.33;100475.13;5047861;28;45667;-73
2023/03/30 03:47:17;;;;;;;;;2.67;1.67;;;;;15.99;54.93;100468.84;5057126;28;45402;-70
2023/03/30 03:49:42;;;;;;;;;1.33;1.33;;;;;15.79;55.49;100440.09;5057752;28;45595;-71
2023/03/30 03:52:07;;;;;;;;;3.33;2.33;;;;;15.95;55.41;100481.38;5059364;28;46562;-70
2023/03/30 03:54:33;;;;;;;;;0.67;0.67;;;;;15.93;55.62;100485.00;5055828;28;54938;-70
2023/03/30 03:56:58;;;;;;;;;2.67;1.67;;;;;15.90;55.83;100472.41;5052592;28;46159;-71
2023/03/30 03:59:23;;;;;;;;;3.00;2.33;;;;;15.83;55.60;100465.22;5056969;28;49845;-69
2023/03/30 04:01:49;;;;;;;;;1.00;1.00;;;;;15.67;55.95;100450.81;5048613;28;45931;-67
2023/03/30 04:04:14;;;;;;;;;0.33;0.33;;;;;15.76;56.21;100485.00;5048397;28;45832;-72
2023/03/30 04:06:39;;;;;;;;;2.67;0.00;;;;;15.54;56.50;100454.38;5048936;28;49386;-67
2023/03/30 04:09:05;;;;;;;;;3.00;1.33;;;;;15.58;56.41;100461.59;5045404;28;45603;-71
2023/03/30 04:11:31;;;;;;;;;3.67;2.67;;;;;15.54;56.65;100466.09;5043730;28;45524;-70
2023/03/30 04:13:56;;;;;;;;;2.00;1.00;;;;;15.72;56.89;100492.09;5045743;28;45392;-71
2023/03/30 04:16:21;;;;;;;;;1.67;1.33;;;;;15.73;56.47;100490.34;5052102;28;45424;-70
2023/03/30 04:18:47;;;;;;;;;0.00;0.00;;;;;15.63;57.03;100474.16;5052880;28;46340;-71
2023/03/30 04:21:12;;;;;;;;;1.67;1.67;;;;;15.66;56.56;100484.94;5052268;28;45461;-70
2023/03/30 04:23:38;;;;;;;;;2.67;1.33;;;;;15.63;56.90;100486.72;5049930;28;45390;-70
2023/03/30 04:26:06;;;;;;;;;1.33;1.00;;;;;15.60;57.07;100484.91;5049859;28;45333;-71
2023/03/30 04:28:33;;;;;;;;;3.00;2.00;;;;;15.60;56.81;100476.84;5049436;28;45439;-69
2023/03/30 04:31:00;;;;;;;;;2.00;2.00;;;;;15.56;57.00;100482.22;5053708;28;46161;-68
2023/03/30 04:33:26;;;;;;;;;2.67;2.67;;;;;15.56;56.95;100476.81;5051256;28;45365;-69
2023/03/30 04:35:51;;;;;;;;;1.00;1.00;;;;;15.28;57.08;100433.72;5051733;28;45624;-70
2023/03/30 04:38:21;;;;;;;;;3.33;2.67;;;;;15.57;57.19;100492.09;5045985;28;45362;-68
2023/03/30 04:40:48;;;;;;;;;2.00;2.00;;;;;15.50;56.93;100480.41;5047241;28;47388;-69
2023/03/30 04:43:18;;;;;;;;;3.00;2.33;;;;;15.55;57.26;100493.91;5053083;28;45527;-71
2023/03/30 04:45:50;;;;;;;;;2.00;1.00;;;;;15.51;57.28;100486.69;5045163;28;45449;-70
2023/03/30 04:48:15;;;;;;;;;3.67;2.00;;;;;15.47;57.14;100488.47;5044893;28;45756;-72
2023/03/30 04:50:42;;;;;;;;;2.00;2.00;;;;;15.47;57.46;100486.69;5048003;28;45637;-71
2023/03/30 04:53:08;;;;;;;;;6.00;2.00;;;;;15.49;57.68;100502.84;5047627;28;45299;-71
2023/03/30 04:55:34;;;;;;;;;0.67;0.67;;;;;15.46;57.71;100501.06;5053690;28;45429;-71
2023/03/30 04:57:59;;;;;;;;;2.33;2.00;;;;;15.42;57.75;100506.44;5054138;28;45749;-72
2023/03/30 05:00:26;;;;;;;;;2.67;2.00;;;;;15.40;58.10;100500.16;5053654;28;45983;-66
2023/03/30 05:02:51;;;;;;;;;3.00;2.33;;;;;15.28;58.26;100487.56;5040278;28;45430;-69
2023/03/30 05:05:17;;;;;;;;;2.00;2.00;;;;;15.38;58.16;100513.59;5053975;28;45457;-70
2023/03/30 05:07:42;;;;;;;;;2.33;1.00;;;;;15.35;58.00;100507.31;5054183;28;45476;-71
2023/03/30 05:10:08;;;;;;;;;3.00;1.00;;;;;15.36;58.12;100518.09;5051273;28;49156;-67
2023/03/30 05:12:33;;;;;;;;;3.00;2.00;;;;;15.28;58.49;100517.16;5052587;28;45539;-69
2023/03/30 05:14:58;;;;;;;;;2.00;1.00;;;;;15.27;58.69;100521.63;5043924;28;45456;-68
2023/03/30 05:17:24;;;;;;;;;3.33;1.33;;;;;15.19;58.42;100509.94;5054370;28;45488;-71
2023/03/30 05:19:49;;;;;;;;;6.00;1.67;;;;;15.24;58.87;100527.00;5060215;28;46635;-72
2023/03/30 05:22:15;;;;;;;;;3.00;1.67;;;;;15.22;58.87;100527.91;5064240;28;45126;-71
2023/03/30 05:24:40;;;;;;;;;1.00;1.00;;;;;15.28;58.59;100525.25;5061993;28;45327;-71
2023/03/30 05:27:05;;;;;;;;;5.00;2.33;;;;;15.22;58.79;100534.16;5063826;28;45191;-69
2023/03/30 05:29:31;;;;;;;;;3.33;3.00;;;;;15.27;58.91;100553.94;5058264;28;46231;-67
2023/03/30 05:31:56;;;;;;;;;2.00;2.00;;;;;15.25;58.91;100541.38;5051316;28;45389;-67
2023/03/30 05:34:21;;;;;;;;;4.00;2.00;;;;;15.20;58.81;100546.72;5051732;28;45495;-67
2023/03/30 05:36:47;;;;;;;;;1.00;1.00;;;;;15.27;58.89;100563.81;5045386;28;45348;-67
2023/03/30 05:39:13;;;;;;;;;2.33;2.00;;;;;15.24;58.71;100556.59;5050209;28;46594;-69
2023/03/30 05:41:38;;;;;;;;;1.00;1.00;;;;;15.26;58.82;100554.84;5048850;28;45703;-69
2023/03/30 05:44:03;;;;;;;;;5.00;2.67;;;;;15.07;58.61;100523.34;5048932;28;45276;-73
2023/03/30 05:46:29;;;;;;;;;3.00;3.00;;;;;15.23;58.56;100557.50;5052112;28;45560;-77
2023/03/30 05:48:55;;;;;;;;;2.00;2.00;;;;;15.22;58.81;100560.19;5050971;28;46975;-70
2023/03/30 05:51:20;;;;;;;;;3.67;2.00;;;;;15.09;58.82;100532.31;5054780;28;45475;-72
2023/03/30 05:53:46;;;;;;;;;4.00;2.33;;;;;15.25;58.76;100570.97;5054720;28;45679;-72
2023/03/30 05:56:11;;;;;;;;;5.33;3.67;;;;;15.25;58.84;100579.94;5050260;28;45465;-73
2023/03/30 05:58:37;;;;;;;;;2.00;2.00;;;;;15.25;58.80;100581.75;5053206;28;45482;-73
2023/03/30 06:01:04;;;;;;;;;0.00;0.00;;;;;15.12;58.71;100556.56;5056920;28;45459;-73
2023/03/30 06:03:30;;;;;;;;;5.00;2.00;;;;;15.15;58.59;100566.47;5056149;28;45513;-71
2023/03/30 06:05:55;;;;;;;;;5.67;3.00;;;;;15.00;58.57;100551.13;5049243;28;45358;-76
2023/03/30 06:08:20;;;;;;;;;4.00;3.00;;;;;15.17;59.03;100587.09;5050575;28;45437;-71
2023/03/30 06:10:53;;;;;;;;;24.25;24.25;;;;;15.20;59.16;100591.59;5053426;28;46896;-74
2023/03/30 06:13:19;;;;;;;;;4.33;4.00;;;;;15.21;59.40;100597.00;5048655;28;45628;-72
2023/03/30 06:15:45;;;;;;;;;5.00;3.25;;;;;15.25;58.79;100590.72;5063297;28;45448;-75
2023/03/30 06:18:10;;;;;;;;;3.00;1.33;;;;;15.25;58.83;100606.84;5055242;28;47584;-73
2023/03/30 06:20:36;;;;;;;;;3.67;3.67;;;;;14.89;58.82;100534.94;5063414;28;45254;-73
2023/03/30 06:23:02;;;;;;;;;5.00;2.67;;;;;15.22;59.07;100597.88;5061866;28;45325;-74
2023/03/30 06:25:28;;;;;;;;;3.50;3.50;;;;;15.27;58.70;100602.38;5067810;28;45076;-72
2023/03/30 06:27:54;;;;;;;;;2.00;2.00;;;;;15.26;59.11;100603.28;5049418;28;45449;-72
2023/03/30 06:30:20;;;;;;;;;4.00;3.00;;;;;15.33;58.84;100614.97;5052802;28;45284;-72
2023/03/30 06:32:45;;;;;;;;;7.00;3.00;;;;;15.37;59.09;100615.88;5052733;28;45302;-72
2023/03/30 06:35:12;;;;;;;;;4.00;3.00;;;;;15.34;58.64;100614.06;5056200;28;45566;-72
2023/03/30 06:37:38;;;;;;;;;4.00;3.00;;;;;15.37;58.55;100624.84;5049873;28;47442;-71
2023/03/30 06:40:14;;;;;;;;;2.00;2.00;;;;;15.35;58.26;100625.75;5054422;28;45463;-75
2023/03/30 06:42:42;;;;;;;;;3.50;2.50;;;;;15.21;58.36;100609.53;5055274;28;45346;-75
2023/03/30 06:45:09;;;;;;;;;4.33;3.00;;;;;15.33;58.55;100641.91;5055295;28;45398;-74
2023/03/30 06:47:35;;;;;;;;;5.50;4.50;;;;;15.30;58.43;100629.31;5052483;28;46286;-69
2023/03/30 06:50:01;;;;;;;;;5.75;3.75;;;;;15.35;58.68;100647.28;5055114;28;45260;-75
2023/03/30 06:52:26;;;;;;;;;3.67;2.00;;;;;15.35;58.24;100652.69;5042728;28;45350;-75
2023/03/30 06:54:51;;;;;;;;;4.00;2.00;;;;;15.33;58.25;100655.34;5054579;28;45548;-75
2023/03/30 06:57:17;;;;;;;;;6.33;5.00;;;;;15.34;58.45;100657.13;5054965;28;48999;-73
2023/03/30 06:59:42;;;;;;;;;4.33;2.00;;;;;15.37;58.50;100667.94;5056063;28;45330;-72
2023/03/30 07:02:14;;;;;;;;;5.00;3.00;;;;;15.41;58.01;100672.44;5052159;28;45401;-71
2023/03/30 07:04:40;;;;;;;;;3.67;2.67;;;;;15.40;57.64;100658.97;5046894;28;45515;-70
2023/03/30 07:07:06;;;;;;;;;3.00;2.67;;;;;15.41;57.94;100671.53;5054124;28;45495;-71
2023/03/30 07:09:31;;;;;;;;;5.33;3.33;;;;;15.37;58.36;100662.53;5055023;28;45459;-76
2023/03/30 07:11:56;;;;;;;;;1.00;0.00;;;;;15.43;58.20;100680.53;5054623;28;45326;-72
2023/03/30 07:14:22;;;;;;;;;6.67;3.33;;;;;15.43;58.03;100667.97;5054984;28;45322;-75
2023/03/30 07:16:47;;;;;;;;;3.33;3.00;;;;;15.44;58.38;100669.78;5049699;28;46898;-72
2023/03/30 07:19:14;;;;;;;;;3.00;3.00;;;;;15.46;58.52;100665.28;5051844;28;45663;-74
2023/03/30 07:21:39;;;;;;;;;2.00;2.00;;;;;15.44;58.46;100671.56;5053238;28;45435;-74
2023/03/30 07:24:07;;;;;;;;;6.33;3.33;;;;;15.34;58.06;100651.75;5055169;28;45491;-74
2023/03/30 07:26:32;;;;;;;;;3.67;2.00;;;;;15.37;57.89;100675.13;5047147;28;46012;-77
2023/03/30 07:28:58;;;;;;;;;4.00;4.00;;;;;15.47;58.29;100679.66;5055247;28;45550;-74
2023/03/30 07:31:24;;;;;;;;;3.00;2.00;;;;;15.47;57.97;100685.91;5047099;28;45393;-73
2023/03/30 07:33:50;;;;;;;;;3.00;3.00;;;;;15.51;58.04;100685.94;5048186;28;45503;-73
2023/03/30 07:36:16;;;;;;;;;4.33;2.67;;;;;15.52;57.94;100683.25;5048195;28;47089;-72
2023/03/30 07:38:41;;;;;;;;;5.00;3.33;;;;;15.43;57.79;100677.84;5057200;28;45453;-74
2023/03/30 07:41:09;;;;;;;;;5.00;3.00;;;;;15.36;57.74;100652.69;5064635;28;44969;-77
2023/03/30 07:43:34;;;;;;;;;4.33;2.00;;;;;15.52;57.71;100675.19;5068761;28;45678;-77
2023/03/30 07:46:00;;;;;;;;;4.00;0.67;;;;;15.54;57.69;100677.88;5055009;28;45515;-74
2023/03/30 07:48:25;;;;;;;;;3.00;3.00;;;;;15.52;57.16;100691.34;5047396;28;45723;-74
2023/03/30 07:51:05;;;;;;;;;5.33;4.67;;;;;15.53;57.48;100677.00;5048504;28;45476;-74
2023/03/30 07:53:32;;;;;;;;;5.00;4.33;;;;;15.60;57.43;100683.31;5048488;28;45408;-75
2023/03/30 07:55:57;;;;;;;;;2.33;2.33;;;;;15.65;57.37;100692.31;5051206;28;45693;-71
2023/03/30 07:58:22;;;;;;;;;3.00;2.00;;;;;15.60;56.81;100664.44;5049318;28;45536;-73
2023/03/30 08:00:48;;;;;;;;;3.33;3.00;;;;;15.73;56.57;100686.97;5050733;28;45671;-71
2023/03/30 08:03:14;;;;;;;;;3.00;2.33;;;;;15.64;56.59;100671.63;5050280;28;45690;-74
2023/03/30 08:05:40;;;;;;;;;6.33;3.00;;;;;15.78;55.94;100696.00;5047452;28;46154;-74
2023/03/30 08:08:06;;;;;;;;;5.67;3.67;;;;;15.83;55.78;100694.22;5051757;28;45371;-71
2023/03/30 08:10:32;;;;;;;;;3.00;1.67;;;;;15.79;55.18;100689.72;5049172;28;45546;-71
2023/03/30 08:12:57;;;;;;;;;3.00;3.00;;;;;15.72;54.71;100664.50;5053230;28;45624;-76
2023/03/30 08:15:23;;;;;;;;;4.33;3.00;;;;;15.97;54.97;100699.63;5049795;28;54021;-74
2023/03/30 08:17:48;;;;;;;;;5.33;2.33;;;;;16.02;54.55;100693.38;5048375;28;45411;-72
2023/03/30 08:20:13;;;;;;;;;1.00;0.67;;;;;16.10;54.04;100700.59;5050814;28;45541;-74
2023/03/30 08:22:42;;;;;;;;;2.33;1.67;;;;;16.08;54.60;100700.56;5049857;28;45457;-73
2023/03/30 08:25:08;;;;;;;;;2.00;2.00;;;;;16.19;54.49;100722.19;5047138;28;47494;-76
2023/03/30 08:27:33;;;;;;;;;3.67;3.67;;;;;16.21;53.72;100709.59;5045029;28;45293;-75
2023/03/30 08:29:59;;;;;;;;;2.00;1.67;;;;;16.14;53.47;100692.53;5057235;28;45486;-75
2023/03/30 08:32:25;;;;;;;;;7.00;3.33;;;;;16.21;53.42;100707.78;5049706;28;45607;-73
2023/03/30 08:34:52;;;;;;;;;4.33;2.67;;;;;16.31;52.93;100718.63;5049457;28;46991;-75
2023/03/30 08:37:18;;;;;;;;;5.00;3.33;;;;;16.40;53.23;100733.03;5049424;28;45941;-74
2023/03/30 08:39:44;;;;;;;;;6.33;3.67;;;;;16.23;52.87;100691.63;5049074;28;45378;-73
2023/03/30 08:42:33;;;;;;;;;4.33;2.67;;;;;16.30;52.80;100703.31;5055923;28;45386;-74
2023/03/30 08:45:04;;;;;;;;;4.00;2.67;;;;;16.52;53.00;100737.53;5044232;28;46563;-74
2023/03/30 08:47:35;;;;;;;;;3.00;1.67;;;;;16.61;52.53;100747.44;5045408;28;45399;-76
2023/03/30 08:50:32;;;;;;;;;4.00;3.33;;;;;16.61;52.68;100755.53;5052854;28;45793;-77
2023/03/30 08:52:57;;;;;;;;;3.00;2.33;;;;;16.57;52.57;100753.72;5054998;28;45481;-77
2023/03/30 08:55:37;;;;;;;;;13.00;2.33;;;;;16.55;52.49;100759.13;5055801;28;46287;-73
2023/03/30 08:58:31;;;;;;;;;9.00;2.33;;;;;16.46;52.98;100750.09;5047696;28;45695;-78
2023/03/30 09:01:21;;;;;;;;;3.33;1.67;;;;;16.47;52.71;100746.53;5047870;28;45605;-77
2023/03/30 09:04:00;;;;;;;;;8.67;2.67;;;;;16.35;53.52;100732.13;5053957;28;45817;-75
2023/03/30 09:06:43;;;;;;;;;5.67;3.33;;;;;16.56;53.10;100760.00;5053593;28;45458;-74
2023/03/30 09:09:13;;;;;;;;;13.00;4.67;;;;;16.61;52.78;100766.31;5061097;28;45406;-74
2023/03/30 09:11:38;;;;;;;;;8.00;5.67;;;;;16.45;52.71;100732.13;5043173;28;45599;-74
2023/03/30 09:14:10;;;;;;;;;2.33;2.33;;;;;16.42;53.15;100727.63;5051388;28;45742;-73
2023/03/30 09:16:58;;;;;;;;;3.67;3.67;;;;;16.69;53.20;100764.53;5049429;28;45545;-72
2023/03/30 09:19:30;;;;;;;;;5.00;3.00;;;;;16.77;53.22;100759.16;5050914;28;45487;-76
2023/03/30 09:21:58;;;;;;;;;8.00;4.33;;;;;16.84;52.90;100760.94;5049394;28;45333;-73
2023/03/30 09:24:26;;;;;;;;;14.00;4.00;;;;;16.82;52.44;100732.19;5051686;28;45440;-74
2023/03/30 09:27:01;;;;;;;;;3.00;3.00;;;;;17.12;51.69;100756.47;5052520;28;45481;-74
2023/03/30 09:29:42;;;;;;;;;2.67;2.67;;;;;17.31;51.21;100768.19;5047298;28;45543;-72
2023/03/30 09:32:19;;;;;;;;;6.33;2.00;;;;;17.44;51.01;100771.78;5052007;28;45595;-76
2023/03/30 09:34:53;;;;;;;;;2.67;2.67;;;;;17.44;50.91;100755.56;5056775;28;45564;-77
2023/03/30 09:37:20;;;;;;;;;3.00;3.00;;;;;17.50;50.27;100755.56;5045077;28;46231;-75
2023/03/30 09:39:49;;;;;;;;;2.00;1.67;;;;;17.32;50.19;100739.38;5042396;28;45392;-73
2023/03/30 09:42:26;;;;;;;;;2.33;2.00;;;;;17.41;50.99;100768.19;5057515;28;45554;-74
2023/03/30 09:45:00;;;;;;;;;3.00;1.67;;;;;17.37;50.62;100772.66;5056883;28;45678;-76
2023/03/30 09:47:31;;;;;;;;;6.33;3.67;;;;;17.30;50.83;100770.88;5051018;28;45460;-76
2023/03/30 09:49:59;;;;;;;;;9.33;2.67;;;;;17.25;50.34;100759.19;5054619;28;45297;-76
2023/03/30 09:52:31;;;;;;;;;4.00;3.00;;;;;17.27;50.23;100757.38;5043895;28;45384;-73
2023/03/30 09:55:16;;;;;;;;;6.00;2.67;;;;;17.27;49.41;100750.19;5056443;28;45466;-74
2023/03/30 09:57:42;;;;;;;;;2.67;2.00;;;;;17.25;49.96;100770.88;5055673;28;46132;-74
2023/03/30 10:00:30;;;;;;;;;2.00;1.33;;;;;17.20;49.66;100766.41;5056314;28;45263;-75
2023/03/30 10:03:01;;;;;;;;;4.33;4.33;;;;;17.19;49.70;100761.88;5050486;28;45576;-73
2023/03/30 10:05:27;;;;;;;;;5.67;4.00;;;;;17.04;50.08;100752.91;5046242;28;45742;-74
2023/03/30 10:08:19;;;;;;;;;3.00;2.67;;;;;17.19;48.95;100794.28;5045477;28;45394;-74
2023/03/30 10:10:51;;;;;;;;;6.67;4.00;;;;;17.09;49.24;100790.69;5038877;28;45496;-77
2023/03/30 10:13:20;;;;;;;;;3.67;3.67;;;;;17.04;49.47;100812.31;5053696;28;45556;-78
2023/03/30 10:15:53;;;;;;;;;8.00;1.67;;;;;17.02;48.83;100787.09;5051294;28;45834;-76
2023/03/30 10:18:27;;;;;;;;;4.67;3.00;;;;;17.07;48.95;100787.97;5052361;28;47447;-74
2023/03/30 10:21:05;;;;;;;;;8.00;4.33;;;;;17.17;48.79;100788.00;5046891;28;45535;-76
2023/03/30 10:23:33;;;;;;;;;8.33;3.67;;;;;17.20;49.04;100786.19;5043578;28;45342;-75
2023/03/30 10:26:03;;;;;;;;;9.00;6.33;;;;;17.16;49.27;100760.09;5056243;28;45378;-74
2023/03/30 10:28:32;;;;;;;;;5.33;4.67;;;;;17.34;49.10;100785.28;5055467;28;45409;-73
2023/03/30 10:31:01;;;;;;;;;4.00;4.00;;;;;17.43;49.16;100785.28;5055084;28;45526;-78
2023/03/30 10:33:28;;;;;;;;;4.00;4.00;;;;;17.53;48.67;100781.66;5054796;28;45354;-72
2023/03/30 10:35:59;;;;;;;;;2.00;2.00;;;;;17.54;47.85;100761.84;5050061;28;45316;-76
2023/03/30 10:38:31;;;;;;;;;5.33;2.00;;;;;17.69;48.04;100791.53;5049780;28;46236;-73
2023/03/30 10:41:01;;;;;;;;;4.33;3.67;;;;;17.76;48.03;100761.81;5047539;28;45438;-72
2023/03/30 10:43:31;;;;;;;;;6.33;4.00;;;;;17.89;47.49;100760.00;5053873;28;45578;-72
2023/03/30 10:46:06;;;;;;;;;11.67;4.00;;;;;18.07;46.90;100772.53;5050831;28;45747;-72
2023/03/30 10:48:46;;;;;;;;;5.00;3.67;;;;;18.14;46.26;100761.69;5044679;28;45712;-72
2023/03/30 10:51:39;;;;;;;;;7.00;3.00;;;;;18.17;46.34;100772.47;5064446;28;45484;-74
2023/03/30 10:54:23;;;;;;;;;5.00;3.00;;;;;18.15;46.12;100755.38;5046309;28;45484;-72
2023/03/30 10:57:15;;;;;;;;;7.33;6.00;;;;;18.29;46.11;100757.09;5056132;28;45466;-72
2023/03/30 10:59:59;;;;;;;;;6.00;4.33;;;;;18.41;45.42;100755.25;5043125;28;46259;-71
2023/03/30 11:03:05;;;;;;;;;6.67;5.00;;;;;18.53;45.15;100756.09;5054021;28;45544;-72
2023/03/30 11:05:39;;;;;;;;;3.67;3.67;;;;;18.44;44.70;100740.78;5039815;28;45638;-71
2023/03/30 11:08:16;;;;;;;;;4.33;3.67;;;;;18.38;44.93;100732.72;5048445;28;45428;-71
2023/03/30 11:10:52;;;;;;;;;6.33;2.00;;;;;18.59;44.67;100750.59;5053852;28;45506;-74
2023/03/30 11:13:26;;;;;;;;;3.00;3.00;;;;;18.64;44.57;100756.00;5042253;28;45318;-73
2023/03/30 11:15:54;;;;;;;;;3.00;3.00;;;;;18.63;44.60;100757.81;5042326;28;45334;-73
2023/03/30 11:18:38;;;;;;;;;2.67;2.33;;;;;18.59;44.99;100750.59;5053059;28;45740;-73
2023/03/30 11:21:13;;;;;;;;;3.00;3.00;;;;;18.62;45.08;100750.59;5048513;28;46449;-75
2023/03/30 11:23:52;;;;;;;;;3.67;3.67;;;;;18.76;44.88;100755.94;5054014;28;45304;-73
2023/03/30 11:26:26;;;;;;;;;6.33;4.33;;;;;18.79;44.47;100762.22;5047786;28;45674;-75
2023/03/30 11:29:04;;;;;;;;;3.67;3.00;;;;;18.68;44.07;100720.78;5048430;28;45640;-74
2023/03/30 11:31:39;;;;;;;;;2.00;1.67;;;;;18.85;43.88;100749.56;5049036;28;45452;-72
2023/03/30 11:34:28;;;;;;;;;3.67;3.33;;;;;18.85;43.59;100739.63;5048765;28;45381;-75
2023/03/30 11:36:58;;;;;;;;;3.00;2.67;;;;;18.86;43.16;100751.34;5053488;28;46082;-74
2023/03/30 11:39:29;;;;;;;;;2.67;2.67;;;;;18.82;42.77;100736.91;5053179;28;45655;-76